Time;durP1;ratioP1;P1;durP2;ratioP2;P2;SDS_P1;SDS_P2;PMS_P1;PMS_P2;Temp;Humidity;BMP_temperature;BMP_pressure;BME280_temperature;BME280_humidity;BME280_pressure;Samples;Min_cycle;Max_cycle;Signal;HPM_P1;HPM_P2
2024/03/29 01:44:23;;;;;;;25.23;12.77;;;;;;;5.43;76.31;98831.00;5021418;28;20567;-82
2024/03/29 01:46:50;;;;;;;22.97;12.03;;;;;;;5.42;76.30;98829.31;5009024;28;20237;-80
2024/03/29 01:49:17;;;;;;;28.60;12.70;;;;;;;5.43;76.18;98831.00;5006992;28;20200;-82
2024/03/29 01:51:45;;;;;;;25.60;12.83;;;;;;;5.44;76.55;98835.28;5004871;28;20204;-82
2024/03/29 01:54:13;;;;;;;21.83;11.97;;;;;;;5.42;76.60;98837.09;5007535;28;20204;-82
2024/03/29 01:56:41;;;;;;;19.90;11.60;;;;;;;5.44;76.31;98837.03;5008615;28;20236;-82
2024/03/29 01:59:14;;;;;;;21.60;12.57;;;;;;;5.44;76.49;98832.69;5004972;28;20205;-80
2024/03/29 02:01:43;;;;;;;25.00;14.77;;;;;;;5.41;76.56;98827.63;5005337;28;20201;-71
2024/03/29 02:04:10;;;;;;;27.03;12.67;;;;;;;5.42;76.23;98829.31;5004604;28;20236;-73
2024/03/29 02:06:38;;;;;;;24.00;12.07;;;;;;;5.43;76.68;98841.38;5002968;28;20225;-71
2024/03/29 02:09:05;;;;;;;22.60;11.90;;;;;;;5.41;76.42;98847.53;5005883;28;20205;-73
2024/03/29 02:11:33;;;;;;;23.67;11.97;;;;;;;5.41;76.57;98847.53;5002342;28;20202;-71
2024/03/29 02:14:00;;;;;;;22.67;10.50;;;;;;;5.42;76.39;98854.38;5005039;28;20207;-73
2024/03/29 02:16:28;;;;;;;20.73;11.67;;;;;;;5.41;76.52;98852.72;5003501;28;20209;-72
2024/03/29 02:18:55;;;;;;;21.27;11.63;;;;;;;5.39;76.21;98852.75;5002670;28;20204;-72
2024/03/29 02:21:22;;;;;;;25.43;13.33;;;;;;;5.38;76.56;98845.88;5001740;28;20675;-74
2024/03/29 02:23:58;;;;;;;25.57;13.67;;;;;;;5.39;76.30;98849.31;5004828;28;20600;-73
2024/03/29 02:26:31;;;;;;;21.30;11.47;;;;;;;5.37;76.64;98846.75;5002512;28;20345;-72
2024/03/29 02:28:58;;;;;;;26.73;13.13;;;;;;;5.38;76.73;98850.22;5003374;28;20205;-71
2024/03/29 02:31:25;;;;;;;22.67;13.40;;;;;;;5.35;76.62;98851.16;5004415;28;20226;-72
2024/03/29 02:33:52;;;;;;;22.20;12.03;;;;;;;5.36;76.72;98847.66;5002167;28;20205;-71
2024/03/29 02:36:19;;;;;;;23.23;13.83;;;;;;;5.36;76.26;98854.59;5005370;28;20581;-73
2024/03/29 02:38:46;;;;;;;21.17;12.00;;;;;;;5.32;76.31;98859.03;5002044;28;20296;-73
2024/03/29 02:41:14;;;;;;;22.13;12.17;;;;;;;5.35;76.83;98874.50;5005974;28;20547;-76
2024/03/29 02:43:41;;;;;;;19.33;10.43;;;;;;;5.34;76.40;98867.59;5004415;28;20215;-77
2024/03/29 02:46:07;;;;;;;21.97;12.07;;;;;;;5.33;76.50;98881.47;5004424;28;20224;-76
2024/03/29 02:48:34;;;;;;;19.63;11.57;;;;;;;5.33;76.51;98886.66;5002908;28;20761;-76
2024/03/29 02:51:00;;;;;;;22.23;11.93;;;;;;;5.33;76.59;98891.00;5001483;28;20202;-76
2024/03/29 02:53:26;;;;;;;21.17;11.80;;;;;;;5.34;76.46;98893.53;5005217;28;20577;-76
2024/03/29 02:55:52;;;;;;;22.37;11.60;;;;;;;5.33;76.54;98897.03;5001469;28;20212;-75
2024/03/29 02:58:21;;;;;;;28.67;12.90;;;;;;;5.33;76.49;98897.03;5005094;28;20208;-77
2024/03/29 03:00:46;;;;;;;23.67;12.70;;;;;;;5.32;76.86;98890.16;5002778;28;20216;-77
2024/03/29 03:03:17;;;;;;;21.63;11.90;;;;;;;5.33;76.55;98894.44;5003952;28;20201;-76
2024/03/29 03:05:42;;;;;;;23.77;12.20;;;;;;;5.33;76.74;98891.84;5004149;28;20198;-75
2024/03/29 03:10:59;;;;;;;24.00;11.97;;;;;;;5.33;76.93;98897.03;5005509;28;20219;-74
2024/03/29 03:13:27;;;;;;;22.10;11.83;;;;;;;5.31;77.10;98891.88;5002435;28;20284;-78
2024/03/29 03:15:55;;;;;;;19.20;11.20;;;;;;;5.33;76.87;98894.44;5005311;28;20573;-75
2024/03/29 03:18:21;;;;;;;19.20;10.47;;;;;;;5.33;76.86;98891.84;5002213;28;20670;-77
2024/03/29 03:20:52;;;;;;;23.47;11.90;;;;;;;5.33;76.93;98894.44;5001934;28;20705;-76
2024/03/29 03:23:19;;;;;;;21.37;10.97;;;;;;;5.34;77.05;98895.28;5002939;28;20220;-77
2024/03/29 03:25:46;;;;;;;21.73;12.20;;;;;;;5.33;76.99;98886.66;5002737;28;20208;-75
2024/03/29 03:28:13;;;;;;;20.33;10.90;;;;;;;5.32;77.33;98890.16;5006764;28;20224;-75
2024/03/29 03:30:41;;;;;;;22.10;10.83;;;;;;;5.33;77.45;98891.84;5002820;28;20215;-77
2024/03/29 03:33:08;;;;;;;17.77;9.33;;;;;;;5.33;76.98;98881.47;5001962;28;20577;-75
2024/03/29 03:35:33;;;;;;;20.00;10.33;;;;;;;5.34;77.22;98882.31;5004363;28;20570;-78
2024/03/29 03:38:00;;;;;;;19.17;9.97;;;;;;;5.34;77.05;98877.97;5001683;28;20209;-78
2024/03/29 03:40:26;;;;;;;21.07;11.73;;;;;;;5.34;77.33;98877.13;5004195;28;20585;-78
2024/03/29 03:42:53;;;;;;;17.83;10.47;;;;;;;5.33;76.97;98884.06;5006742;28;20203;-78
2024/03/29 03:45:19;;;;;;;19.73;10.40;;;;;;;5.33;77.30;98889.25;5006714;28;20201;-76
2024/03/29 03:47:47;;;;;;;19.47;9.80;;;;;;;5.34;76.96;98896.13;5002878;28;20834;-75
2024/03/29 03:50:13;;;;;;;20.37;10.40;;;;;;;5.35;77.35;98905.63;5005604;28;20207;-78
2024/03/29 03:52:40;;;;;;;22.30;11.17;;;;;;;5.36;77.16;98909.06;5002272;28;20589;-76
2024/03/29 03:55:06;;;;;;;23.07;10.63;;;;;;;5.35;77.40;98913.41;5004754;28;20203;-77
2024/03/29 03:57:34;;;;;;;19.97;9.77;;;;;;;5.35;77.52;98916.00;5002462;28;20319;-77
2024/03/29 04:00:00;;;;;;;23.53;11.20;;;;;;;5.36;77.19;98922.84;5003450;28;20206;-77
2024/03/29 04:02:27;;;;;;;22.47;11.57;;;;;;;5.36;77.07;98933.22;5004147;28;20201;-77
2024/03/29 04:04:54;;;;;;;21.80;10.80;;;;;;;5.37;77.21;98932.31;5003441;28;20703;-76
2024/03/29 04:07:22;;;;;;;17.23;9.47;;;;;;;5.36;77.44;98938.41;5003887;28;20315;-76
2024/03/29 04:09:51;;;;;;;21.77;10.73;;;;;;;5.38;77.61;98944.41;5001684;28;20206;-76
2024/03/29 04:12:18;;;;;;;20.60;11.03;;;;;;;5.37;77.25;98947.88;4999145;28;20572;-77
2024/03/29 04:14:44;;;;;;;20.37;10.27;;;;;;;5.38;77.21;98946.16;5003089;28;20196;-77
2024/03/29 04:17:11;;;;;;;19.83;10.63;;;;;;;5.37;77.35;98950.47;5000237;28;20210;-76
2024/03/29 04:19:37;;;;;;;20.13;10.67;;;;;;;5.37;77.73;98945.28;5002107;28;20231;-77
2024/03/29 04:22:05;;;;;;;22.33;11.23;;;;;;;5.38;77.64;98946.16;5001715;28;20211;-76
2024/03/29 04:24:31;;;;;;;23.67;11.03;;;;;;;5.36;77.86;98948.78;5003130;28;20209;-76
2024/03/29 04:26:58;;;;;;;22.13;10.73;;;;;;;5.38;77.70;98952.19;5000306;28;20233;-74
2024/03/29 04:29:24;;;;;;;21.73;10.70;;;;;;;5.39;77.82;98948.69;5003673;28;20207;-75
2024/03/29 04:31:51;;;;;;;23.47;10.43;;;;;;;5.40;77.71;98946.94;5000986;28;20204;-75
2024/03/29 04:34:17;;;;;;;18.80;9.90;;;;;;;5.40;77.54;98949.53;5001722;28;20308;-75
2024/03/29 04:36:44;;;;;;;22.20;10.40;;;;;;;5.41;77.59;98948.66;5000972;28;20658;-75
2024/03/29 04:39:12;;;;;;;20.60;11.50;;;;;;;5.41;77.94;98949.50;5002641;28;20207;-76
2024/03/29 04:41:39;;;;;;;21.73;10.50;;;;;;;5.41;77.46;98951.25;5002560;28;20213;-75
2024/03/29 04:44:07;;;;;;;19.80;11.23;;;;;;;5.41;77.95;98954.69;5000373;28;20208;-75
2024/03/29 04:46:34;;;;;;;21.53;9.67;;;;;;;5.43;77.63;98949.44;5003515;28;20564;-76
2024/03/29 04:49:01;;;;;;;18.93;10.40;;;;;;;5.44;77.59;98945.97;4999162;28;20213;-74
2024/03/29 04:51:28;;;;;;;22.03;12.03;;;;;;;5.44;77.66;98949.41;5000610;28;20208;-75
2024/03/29 04:53:55;;;;;;;21.20;10.80;;;;;;;5.45;77.81;98960.63;5002192;28;20209;-74
2024/03/29 04:56:23;;;;;;;19.33;9.83;;;;;;;5.46;78.05;98959.72;5001611;28;20249;-76
2024/03/29 04:58:49;;;;;;;21.63;10.60;;;;;;;5.46;77.80;98959.72;5001195;28;20690;-76
2024/03/29 05:01:16;;;;;;;21.97;11.33;;;;;;;5.47;77.81;98961.44;5002628;28;20205;-77
2024/03/29 05:03:43;;;;;;;20.20;11.40;;;;;;;5.47;77.77;98959.69;5003624;28;20673;-78
2024/03/29 05:06:10;;;;;;;22.93;11.20;;;;;;;5.48;78.06;98961.38;4999550;28;20562;-76
2024/03/29 05:08:37;;;;;;;19.17;10.27;;;;;;;5.49;78.12;98970.03;5000265;28;20702;-77
2024/03/29 05:11:04;;;;;;;19.37;9.80;;;;;;;5.49;77.95;98970.88;5002396;28;20296;-76
2024/03/29 05:13:32;;;;;;;19.87;11.00;;;;;;;5.50;78.06;98962.19;5001579;28;20219;-77
2024/03/29 05:15:59;;;;;;;17.27;10.27;;;;;;;5.51;78.20;98965.63;4999885;28;20201;-77
2024/03/29 05:18:26;;;;;;;19.47;10.23;;;;;;;5.52;78.15;98960.41;5001355;28;20682;-76
2024/03/29 05:20:53;;;;;;;19.77;10.30;;;;;;;5.53;78.40;98964.69;5004348;28;20205;-78
2024/03/29 05:23:20;;;;;;;21.20;10.53;;;;;;;5.53;78.39;98974.22;4999673;28;20212;-77
2024/03/29 05:25:48;;;;;;;18.93;10.40;;;;;;;5.55;78.41;98974.19;5004327;28;20215;-77
2024/03/29 05:28:15;;;;;;;18.87;9.73;;;;;;;5.57;78.25;98977.56;5000132;28;20319;-77
2024/03/29 05:30:44;;;;;;;18.43;10.10;;;;;;;5.58;78.45;98979.28;5002385;28;20233;-78
2024/03/29 05:33:11;;;;;;;17.60;9.80;;;;;;;5.58;78.58;98980.13;5000987;28;20201;-78
2024/03/29 05:35:38;;;;;;;18.47;9.87;;;;;;;5.60;78.26;98988.69;5003877;28;20200;-79
2024/03/29 05:38:05;;;;;;;19.90;10.20;;;;;;;5.61;78.46;98987.81;5000554;28;20630;-77
2024/03/29 05:40:32;;;;;;;18.80;10.77;;;;;;;5.63;78.72;98990.34;5004452;28;20208;-77
2024/03/29 05:43:00;;;;;;;21.73;10.27;;;;;;;5.64;78.87;98992.91;5000328;28;20221;-78
2024/03/29 05:45:29;;;;;;;20.03;10.67;;;;;;;5.65;78.64;98991.16;5001878;28;20197;-76
2024/03/29 05:47:59;;;;;;;19.27;10.27;;;;;;;5.67;78.68;98991.94;5001811;28;20230;-77
2024/03/29 05:50:26;;;;;;;20.73;10.47;;;;;;;5.68;78.82;98980.66;5003538;28;20284;-78
2024/03/29 05:52:53;;;;;;;17.60;9.70;;;;;;;5.70;78.61;98990.09;5003628;28;20208;-77
2024/03/29 05:55:20;;;;;;;20.33;11.07;;;;;;;5.70;79.06;98995.28;5004070;28;20205;-77
2024/03/29 05:57:48;;;;;;;17.53;10.20;;;;;;;5.71;79.00;99011.69;5005453;28;20635;-78
2024/03/29 06:00:16;;;;;;;23.30;10.87;;;;;;;5.74;78.91;99011.59;5004295;28;20216;-78
2024/03/29 06:02:44;;;;;;;22.93;11.63;;;;;;;5.74;78.81;99009.88;5005072;28;20208;-78
2024/03/29 06:05:13;;;;;;;17.67;9.73;;;;;;;5.76;79.12;99015.00;5006540;28;20215;-78
2024/03/29 06:07:40;;;;;;;18.27;10.57;;;;;;;5.76;78.70;99020.19;4999052;28;20264;-77
2024/03/29 06:10:08;;;;;;;19.43;10.17;;;;;;;5.78;78.67;99028.78;5003411;28;20685;-78
2024/03/29 06:12:38;;;;;;;21.83;11.57;;;;;;;5.80;78.99;99032.16;5003505;28;20205;-76
2024/03/29 06:17:50;;;;;;;20.43;10.80;;;;;;;5.81;78.80;99033.03;5003304;28;20232;-75
2024/03/29 06:20:18;;;;;;;20.30;9.83;;;;;;;5.83;79.15;99039.03;5006267;28;20203;-74
2024/03/29 06:22:45;;;;;;;18.37;10.60;;;;;;;5.84;79.09;99044.19;5005785;28;20216;-82
2024/03/29 06:25:12;;;;;;;15.57;10.03;;;;;;;5.85;79.18;99038.06;5004843;28;20217;-82
2024/03/29 06:27:39;;;;;;;18.27;10.37;;;;;;;5.86;78.80;99047.59;5003528;28;20274;-82
2024/03/29 06:30:08;;;;;;;23.57;11.20;;;;;;;5.88;79.27;99063.94;5007199;28;20200;-80
2024/03/29 06:32:35;;;;;;;19.13;10.43;;;;;;;5.90;79.06;99061.31;5006894;28;20640;-80
2024/03/29 06:35:02;;;;;;;20.97;10.93;;;;;;;5.89;79.18;99063.06;5004522;28;20747;-82
2024/03/29 06:37:30;;;;;;;21.77;10.50;;;;;;;5.92;79.14;99073.34;5005305;28;20212;-82
2024/03/29 06:39:57;;;;;;;17.33;9.57;;;;;;;5.93;79.41;99075.03;5006013;28;20201;-81
2024/03/29 06:42:24;;;;;;;20.13;10.53;;;;;;;5.95;79.25;99070.66;5006784;28;20204;-77
2024/03/29 06:44:52;;;;;;;20.50;11.33;;;;;;;5.96;79.39;99074.09;5003516;28;20212;-79
2024/03/29 06:47:19;;;;;;;18.20;10.37;;;;;;;5.97;79.23;99081.84;5006063;28;20617;-76
2024/03/29 06:49:46;;;;;;;17.60;10.03;;;;;;;6.00;79.23;99083.47;5002755;28;20576;-78
2024/03/29 06:52:13;;;;;;;19.23;10.33;;;;;;;6.02;79.29;99088.63;5004046;28;20248;-78
2024/03/29 06:54:41;;;;;;;18.80;9.80;;;;;;;6.02;79.26;99089.47;5005417;28;20786;-76
2024/03/29 06:57:10;;;;;;;17.33;9.17;;;;;;;6.04;79.14;99092.03;5005486;28;20225;-78
2024/03/29 06:59:37;;;;;;;20.33;9.60;;;;;;;6.05;79.33;99093.72;5007086;28;20201;-78
2024/03/29 07:02:04;;;;;;;19.77;10.23;;;;;;;6.08;79.26;99098.81;5003665;28;20232;-78
2024/03/29 07:04:31;;;;;;;19.07;10.90;;;;;;;6.09;79.14;99095.34;5006923;28;20213;-78
2024/03/29 07:06:58;;;;;;;17.13;10.20;;;;;;;6.10;79.27;99097.03;5005504;28;20241;-79
2024/03/29 07:09:25;;;;;;;19.47;10.17;;;;;;;6.12;79.55;99090.06;5004110;28;20319;-76
2024/03/29 07:11:54;;;;;;;18.97;10.17;;;;;;;6.13;79.55;99102.97;5005213;28;20262;-78
2024/03/29 07:14:23;;;;;;;21.30;10.57;;;;;;;6.14;79.35;99109.88;5005669;28;20211;-78
2024/03/29 07:16:50;;;;;;;83.93;26.20;;;;;;;6.15;79.67;99111.56;5003742;28;20225;-76
2024/03/29 07:19:18;;;;;;;43.90;17.80;;;;;;;6.17;79.32;99119.28;5006505;28;20211;-77
2024/03/29 07:21:45;;;;;;;23.30;12.43;;;;;;;6.18;79.44;99123.63;5003452;28;20213;-76
2024/03/29 07:24:12;;;;;;;18.17;9.97;;;;;;;6.20;79.47;99124.44;5003166;28;20666;-77
2024/03/29 07:26:39;;;;;;;19.73;9.77;;;;;;;6.21;79.38;99128.72;5004884;28;20201;-77
2024/03/29 07:29:08;;;;;;;20.03;10.20;;;;;;;6.23;79.69;99129.53;5005072;28;20243;-77
2024/03/29 07:31:35;;;;;;;18.53;8.83;;;;;;;6.21;79.23;99124.34;5003621;28;20213;-79
2024/03/29 07:34:02;;;;;;;17.47;9.33;;;;;;;6.24;79.45;99131.22;5006163;28;20207;-78
2024/03/29 07:36:33;;;;;;;16.10;8.87;;;;;;;6.22;79.22;99127.81;5002623;28;20232;-76
2024/03/29 07:39:01;;;;;;;17.20;8.40;;;;;;;6.28;79.43;99142.34;5004998;28;20602;-78
2024/03/29 07:41:27;;;;;;;15.13;8.00;;;;;;;6.30;79.55;99137.97;5004347;28;20205;-78
2024/03/29 07:43:59;;;;;;;16.70;9.20;;;;;;;6.31;79.80;99135.28;5003954;28;20201;-79
2024/03/29 07:46:29;;;;;;;14.03;7.60;;;;;;;6.33;79.60;99146.50;5005886;28;20201;-78
2024/03/29 07:48:56;;;;;;;14.17;8.53;;;;;;;6.36;79.94;99151.59;5004557;28;20229;-77
2024/03/29 07:51:23;;;;;;;12.87;7.60;;;;;;;6.37;79.47;99152.44;5005799;28;20212;-81
2024/03/29 07:53:52;;;;;;;13.40;7.00;;;;;;;6.38;80.02;99149.81;5004798;28;20211;-81
2024/03/29 07:56:19;;;;;;;13.70;7.47;;;;;;;6.42;79.72;99155.75;5005018;28;20244;-82
2024/03/29 07:58:46;;;;;;;13.20;7.07;;;;;;;6.43;79.59;99150.53;5002938;28;20213;-82
2024/03/29 08:01:19;;;;;;;11.53;6.27;;;;;;;6.48;79.89;99165.09;5002415;28;20208;-81
2024/03/29 08:03:48;;;;;;;12.10;6.67;;;;;;;6.49;79.69;99161.63;5003312;28;20209;-81
2024/03/29 08:06:16;;;;;;;9.53;6.17;;;;;;;6.52;79.96;99164.97;5002002;28;20213;-81
2024/03/29 08:08:43;;;;;;;10.93;5.37;;;;;;;6.54;79.89;99164.91;5003643;28;20232;-81
2024/03/29 08:11:11;;;;;;;8.47;5.57;;;;;;;6.56;79.96;99168.31;5004422;28;20205;-82
2024/03/29 08:13:39;;;;;;;10.13;5.27;;;;;;;6.59;79.84;99183.78;5003062;28;20287;-83
2024/03/29 08:16:06;;;;;;;8.90;6.00;;;;;;;6.61;80.03;99176.81;5005878;28;20216;-81
2024/03/29 08:18:33;;;;;;;9.60;5.90;;;;;;;6.62;79.98;99175.91;5004343;28;20215;-82
2024/03/29 08:21:02;;;;;;;8.10;5.27;;;;;;;6.66;79.45;99187.91;5008020;28;20212;-81
2024/03/29 08:23:30;;;;;;;8.40;5.90;;;;;;;6.69;79.62;99176.56;5005391;28;20267;-81
2024/03/29 08:25:57;;;;;;;9.20;5.27;;;;;;;6.70;79.27;99186.91;5003169;28;20202;-82
2024/03/29 08:28:24;;;;;;;8.17;4.80;;;;;;;6.74;79.61;99200.66;5005168;28;20225;-81
2024/03/29 08:31:01;;;;;;;9.10;5.97;;;;;;;6.77;79.62;99190.16;5005825;28;20212;-81
2024/03/29 08:33:28;;;;;;;8.40;5.20;;;;;;;6.79;79.69;99196.16;5004529;28;20654;-81
2024/03/29 08:35:55;;;;;;;7.17;4.77;;;;;;;6.80;79.54;99206.53;5003629;28;20204;-82
2024/03/29 08:38:25;;;;;;;8.07;5.10;;;;;;;6.82;79.25;99206.44;5001841;28;20208;-81
2024/03/29 08:40:52;;;;;;;8.90;4.53;;;;;;;6.84;79.50;99215.91;5005544;28;20287;-74
2024/03/29 08:43:18;;;;;;;8.53;5.00;;;;;;;6.86;79.34;99216.72;5001751;28;20208;-77
2024/03/29 08:45:46;;;;;;;8.20;4.73;;;;;;;6.88;79.00;99216.66;5000810;28;20206;-75
2024/03/29 08:48:13;;;;;;;7.73;4.97;;;;;;;6.91;79.19;99221.75;4999319;28;20277;-79
2024/03/29 08:50:40;;;;;;;9.90;5.03;;;;;;;6.93;79.24;99224.31;5003444;28;20232;-77
2024/03/29 08:53:07;;;;;;;8.07;5.30;;;;;;;6.95;79.45;99227.72;5000288;28;20247;-77
2024/03/29 08:55:39;;;;;;;6.07;4.30;;;;;;;6.97;79.17;99229.38;5004197;28;20200;-77
2024/03/29 08:58:06;;;;;;;9.13;4.70;;;;;;;6.99;79.00;99234.50;5003683;28;20239;-77
2024/03/29 09:00:33;;;;;;;6.37;4.30;;;;;;;7.03;79.30;99238.72;5000611;28;20671;-76
2024/03/29 09:03:01;;;;;;;6.30;4.50;;;;;;;7.04;79.18;99238.66;5003771;28;20563;-77
2024/03/29 09:05:29;;;;;;;7.10;4.40;;;;;;;7.08;79.20;99244.59;5001428;28;20201;-77
2024/03/29 09:07:58;;;;;;;6.20;3.90;;;;;;;7.09;79.00;99244.56;5002139;28;20260;-77
2024/03/29 09:10:26;;;;;;;6.30;3.83;;;;;;;7.10;78.79;99243.66;5000235;28;20202;-77
2024/03/29 09:12:54;;;;;;;6.90;4.20;;;;;;;7.15;79.11;99245.28;5003305;28;20258;-77
2024/03/29 09:15:21;;;;;;;8.77;4.27;;;;;;;7.17;78.52;99239.13;5000528;28;20201;-76
2024/03/29 09:17:54;;;;;;;7.10;4.27;;;;;;;7.19;78.84;99242.50;5002329;28;20208;-77
2024/03/29 09:20:21;;;;;;;9.07;4.10;;;;;;;7.20;78.52;99246.81;5002233;28;20219;-76
2024/03/29 09:22:51;;;;;;;7.57;3.67;;;;;;;7.23;78.37;99243.25;5000159;28;20586;-75
2024/03/29 09:25:18;;;;;;;4.07;3.30;;;;;;;7.25;78.27;99252.72;5000975;28;20202;-76
2024/03/29 09:27:48;;;;;;;5.57;3.43;;;;;;;7.26;78.12;99244.00;5002383;28;20213;-75
2024/03/29 09:30:18;;;;;;;5.87;4.07;;;;;;;7.28;78.48;99250.00;5004919;28;20226;-76
2024/03/29 09:32:45;;;;;;;7.73;4.80;;;;;;;7.31;78.12;99257.72;5003690;28;20197;-75
2024/03/29 09:35:15;;;;;;;5.77;4.20;;;;;;;7.32;78.71;99249.00;5003682;28;20690;-76
2024/03/29 09:37:42;;;;;;;7.50;4.50;;;;;;;7.35;78.44;99250.66;5002885;28;20212;-76
2024/03/29 09:40:14;;;;;;;7.43;4.17;;;;;;;7.39;78.34;99257.47;5006023;28;20217;-76
2024/03/29 09:42:42;;;;;;;6.77;4.60;;;;;;;7.42;78.42;99257.34;5004796;28;20218;-74
2024/03/29 09:45:15;;;;;;;7.73;4.47;;;;;;;7.46;78.59;99266.78;5004326;28;20553;-74
2024/03/29 09:47:44;;;;;;;7.50;4.27;;;;;;;7.49;78.47;99265.84;5006651;28;20201;-76
2024/03/29 09:50:12;;;;;;;9.23;4.97;;;;;;;7.52;78.38;99263.97;5003818;28;20601;-75
2024/03/29 09:52:42;;;;;;;7.00;4.07;;;;;;;7.56;78.32;99267.31;5005356;28;20582;-74
2024/03/29 09:55:10;;;;;;;7.97;3.73;;;;;;;7.60;78.47;99279.31;5005698;28;20207;-74
2024/03/29 09:57:37;;;;;;;5.23;3.50;;;;;;;7.64;78.04;99277.47;5004350;28;20238;-75
2024/03/29 10:00:05;;;;;;;5.43;3.57;;;;;;;7.68;78.23;99276.44;5006362;28;20305;-75
2024/03/29 10:02:33;;;;;;;8.77;3.80;;;;;;;7.70;77.78;99278.09;5002800;28;20290;-74
2024/03/29 10:05:06;;;;;;;6.40;4.10;;;;;;;7.74;78.35;99284.91;5003440;28;20199;-76
2024/03/29 10:07:37;;;;;;;7.00;3.27;;;;;;;7.78;77.88;99288.25;5004769;28;20254;-75
2024/03/29 10:10:05;;;;;;;5.27;3.33;;;;;;;7.75;78.05;99278.78;5004324;28;20235;-74
2024/03/29 10:12:31;;;;;;;5.37;3.97;;;;;;;7.86;78.11;99295.81;5002974;28;20215;-76
2024/03/29 10:15:05;;;;;;;5.77;3.60;;;;;;;7.88;77.55;99297.44;5007153;28;20574;-76
2024/03/29 10:17:37;;;;;;;6.90;3.50;;;;;;;7.90;77.61;99290.41;5003999;28;20206;-75
2024/03/29 10:20:09;;;;;;;4.33;3.27;;;;;;;7.95;77.42;99300.69;5006893;28;20219;-78
2024/03/29 10:22:43;;;;;;;6.77;3.70;;;;;;;7.98;77.64;99308.38;5003802;28;20199;-77
2024/03/29 10:25:10;;;;;;;6.93;3.40;;;;;;;8.02;77.14;99315.16;5003717;28;20206;-77
2024/03/29 10:27:37;;;;;;;4.37;2.93;;;;;;;8.05;77.29;99322.03;5005206;28;20207;-75
2024/03/29 10:30:05;;;;;;;6.73;3.80;;;;;;;8.08;77.31;99320.19;5003237;28;20230;-76
2024/03/29 10:32:32;;;;;;;6.47;3.47;;;;;;;8.12;77.37;99320.91;5006811;28;20206;-77
2024/03/29 10:35:02;;;;;;;7.47;3.27;;;;;;;8.15;76.94;99329.47;5007237;28;20204;-77
2024/03/29 10:37:33;;;;;;;5.80;3.43;;;;;;;8.19;76.93;99336.28;5003710;28;20677;-76
2024/03/29 10:40:03;;;;;;;6.93;3.77;;;;;;;8.21;77.04;99337.06;5003107;28;20211;-75
2024/03/29 10:42:33;;;;;;;5.87;3.37;;;;;;;8.24;76.67;99347.38;5002283;28;20211;-76
2024/03/29 10:45:05;;;;;;;5.37;3.47;;;;;;;8.27;76.79;99343.81;5002781;28;20208;-77
2024/03/29 10:47:34;;;;;;;6.57;3.00;;;;;;;8.31;76.37;99349.78;5002667;28;20278;-76
2024/03/29 10:50:02;;;;;;;5.67;3.40;;;;;;;8.32;76.56;99348.88;5004545;28;20225;-75
2024/03/29 10:52:32;;;;;;;6.93;3.67;;;;;;;8.36;76.49;99350.44;5002453;28;20209;-76
2024/03/29 10:54:59;;;;;;;3.73;3.00;;;;;;;8.40;76.30;99354.66;5005712;28;20221;-76
2024/03/29 10:57:27;;;;;;;5.23;3.20;;;;;;;8.42;76.40;99365.84;5002356;28;20241;-76
2024/03/29 11:00:04;;;;;;;5.53;3.23;;;;;;;8.44;75.64;99371.88;5004514;28;20210;-75
2024/03/29 11:02:39;;;;;;;5.60;3.60;;;;;;;8.46;75.64;99378.72;5005295;28;20215;-78
2024/03/29 11:05:10;;;;;;;5.30;3.17;;;;;;;8.48;75.66;99386.50;5005011;28;20609;-77
2024/03/29 11:07:45;;;;;;;5.67;3.77;;;;;;;8.47;75.30;99387.38;5004688;28;20207;-75
2024/03/29 11:10:16;;;;;;;5.30;3.23;;;;;;;8.50;75.28;99397.69;5003688;28;20234;-76
2024/03/29 11:12:55;;;;;;;5.30;3.27;;;;;;;8.52;75.47;99388.06;5004122;28;20214;-77
2024/03/29 11:15:29;;;;;;;5.70;3.43;;;;;;;8.52;75.12;99397.66;5003674;28;20203;-77
2024/03/29 11:17:57;;;;;;;6.70;3.63;;;;;;;8.52;75.08;99401.09;5006689;28;20207;-77
2024/03/29 11:20:34;;;;;;;4.83;3.60;;;;;;;8.53;75.07;99399.34;5004564;28;20256;-78
2024/03/29 11:23:09;;;;;;;6.53;3.60;;;;;;;8.53;74.77;99397.59;5004644;28;20203;-83
2024/03/29 11:25:43;;;;;;;5.30;3.27;;;;;;;8.55;74.71;99411.44;5009831;28;20202;-87
2024/03/29 11:28:13;;;;;;;5.67;3.60;;;;;;;8.56;74.74;99407.94;5006363;28;20257;-85
2024/03/29 11:30:46;;;;;;;4.67;3.13;;;;;;;8.56;74.49;99420.97;5007178;28;20224;-87
2024/03/29 11:33:33;;;;;;;4.13;3.07;;;;;;;8.59;74.62;99417.38;5005285;28;20212;-85
2024/03/29 11:36:01;;;;;;;5.53;3.23;;;;;;;8.58;74.77;99411.31;5008877;28;20226;-87
2024/03/29 11:38:34;;;;;;;4.07;3.10;;;;;;;8.60;74.44;99417.31;5004931;28;20210;-86
2024/03/29 11:41:05;;;;;;;5.27;3.67;;;;;;;8.60;74.42;99422.53;5006351;28;20212;-87
2024/03/29 11:43:33;;;;;;;5.27;3.70;;;;;;;8.62;74.10;99423.34;5006111;28;20203;-88
2024/03/29 11:46:01;;;;;;;5.00;3.77;;;;;;;8.61;74.41;99428.59;5004150;28;20211;-86
2024/03/29 11:48:29;;;;;;;4.37;3.40;;;;;;;8.65;74.46;99427.59;5003583;28;20665;-85
2024/03/29 11:50:56;;;;;;;5.30;3.40;;;;;;;8.66;74.95;99426.69;5007467;28;20228;-83
2024/03/29 11:53:27;;;;;;;3.77;3.33;;;;;;;8.70;74.67;99430.88;5006523;28;20258;-81
2024/03/29 11:55:58;;;;;;;5.73;3.53;;;;;;;8.74;74.55;99439.47;5006285;28;20226;-83
2024/03/29 11:58:28;;;;;;;5.77;2.90;;;;;;;8.77;74.57;99434.13;5003062;28;20566;-82
2024/03/29 12:00:56;;;;;;;4.03;2.77;;;;;;;8.80;74.32;99434.00;5011332;28;20208;-80
2024/03/29 12:03:26;;;;;;;4.40;2.97;;;;;;;8.83;74.19;99441.72;5004662;28;20214;-81
2024/03/29 12:05:55;;;;;;;5.03;3.03;;;;;;;8.85;74.13;99438.16;5004671;28;20217;-81
2024/03/29 12:08:22;;;;;;;3.83;2.60;;;;;;;8.89;74.11;99451.94;5003048;28;20206;-80
2024/03/29 12:10:50;;;;;;;3.77;2.43;;;;;;;8.92;74.10;99441.38;5003505;28;20226;-76
2024/03/29 12:13:19;;;;;;;2.90;2.20;;;;;;;8.93;73.68;99440.44;5002345;28;20215;-75
2024/03/29 12:15:46;;;;;;;2.90;2.30;;;;;;;9.00;73.39;99443.72;5004477;28;20231;-76
2024/03/29 12:18:16;;;;;;;2.90;2.07;;;;;;;9.04;73.38;99451.34;5002656;28;20219;-75
2024/03/29 12:20:46;;;;;;;3.50;2.17;;;;;;;9.09;73.44;99465.06;5002881;28;20672;-77
2024/03/29 12:23:14;;;;;;;3.13;1.93;;;;;;;9.12;73.02;99470.19;5000713;28;20233;-76
2024/03/29 12:25:42;;;;;;;2.73;2.10;;;;;;;9.16;72.97;99470.94;5004523;28;20580;-76
2024/03/29 12:28:10;;;;;;;4.33;2.27;;;;;;;9.22;72.69;99473.31;5002589;28;20296;-75
2024/03/29 12:30:41;;;;;;;3.43;1.80;;;;;;;9.25;72.88;99475.81;5004222;28;20228;-77
2024/03/29 12:33:14;;;;;;;2.60;2.00;;;;;;;9.29;72.53;99473.94;5003242;28;20209;-77
2024/03/29 12:35:43;;;;;;;2.57;1.70;;;;;;;9.35;72.07;99485.00;5000497;28;20219;-79
2024/03/29 12:38:12;;;;;;;2.80;1.67;;;;;;;9.38;72.09;99486.63;5003046;28;20556;-77
2024/03/29 12:40:40;;;;;;;1.80;1.53;;;;;;;9.43;71.87;99486.47;5001966;28;20299;-77
2024/03/29 12:43:08;;;;;;;3.97;1.83;;;;;;;9.44;71.63;99489.00;5001716;28;20234;-77
2024/03/29 12:45:36;;;;;;;1.90;1.70;;;;;;;9.46;71.83;99479.38;5003429;28;20289;-78
2024/03/29 12:48:10;;;;;;;2.37;1.77;;;;;;;9.52;71.57;99478.28;5000158;28;20203;-77
2024/03/29 12:50:37;;;;;;;2.00;1.77;;;;;;;9.54;71.29;99479.06;4999980;28;20227;-77
2024/03/29 12:53:08;;;;;;;2.83;1.80;;;;;;;9.58;71.27;99489.31;5002355;28;20205;-78
2024/03/29 12:55:38;;;;;;;2.93;1.70;;;;;;;9.61;70.95;99487.50;5002132;28;20208;-76
2024/03/29 12:58:09;;;;;;;1.53;1.40;;;;;;;9.65;70.71;99483.88;5000191;28;20212;-77
2024/03/29 13:00:36;;;;;;;1.93;1.50;;;;;;;9.69;70.51;99491.53;5003687;28;20580;-77
2024/03/29 13:03:04;;;;;;;2.27;1.73;;;;;;;9.70;70.25;99494.97;5001817;28;20643;-77
2024/03/29 13:05:34;;;;;;;1.77;1.50;;;;;;;9.74;69.99;99500.03;5005810;28;20208;-75
2024/03/29 13:08:01;;;;;;;1.43;1.30;;;;;;;9.76;69.87;99490.38;5007183;28;20736;-75
2024/03/29 13:10:28;;;;;;;2.03;1.60;;;;;;;9.74;69.60;99496.56;5004237;28;20232;-77
2024/03/29 13:12:55;;;;;;;1.93;1.50;;;;;;;9.82;69.48;99511.94;5004190;28;20211;-76
2024/03/29 13:15:24;;;;;;;2.40;1.10;;;;;;;9.85;69.47;99515.28;5007225;28;20208;-75
2024/03/29 13:17:52;;;;;;;1.73;1.17;;;;;;;9.87;69.14;99512.59;5005637;28;20208;-76
2024/03/29 13:20:21;;;;;;;2.17;1.40;;;;;;;9.90;69.20;99515.97;5004479;28;20212;-75
2024/03/29 13:22:49;;;;;;;3.40;1.50;;;;;;;9.91;68.84;99522.88;5006299;28;20204;-76
2024/03/29 13:25:17;;;;;;;2.20;1.40;;;;;;;9.94;68.70;99521.91;5005169;28;20225;-77
2024/03/29 13:27:47;;;;;;;1.90;1.50;;;;;;;9.95;68.72;99516.59;5006648;28;20212;-77